sensor_id;sensor_type;location;lat;lon;timestamp;P1;durP1;ratioP1;P2;durP2;ratioP2
81648;SDS011;71057;51.436;6.768;2023-08-08T00:01:10;4.50;;;3.10;;
81648;SDS011;71057;51.436;6.768;2023-08-08T00:03:35;4.80;;;2.80;;
81648;SDS011;71057;51.436;6.768;2023-08-08T00:06:00;3.80;;;2.53;;
81648;SDS011;71057;51.436;6.768;2023-08-08T00:08:25;2.60;;;2.30;;
81648;SDS011;71057;51.436;6.768;2023-08-08T00:10:51;4.07;;;2.57;;
81648;SDS011;71057;51.436;6.768;2023-08-08T00:13:16;4.63;;;2.50;;
81648;SDS011;71057;51.436;6.768;2023-08-08T00:15:41;2.60;;;2.10;;
81648;SDS011;71057;51.436;6.768;2023-08-08T00:18:06;5.50;;;2.43;;
81648;SDS011;71057;51.436;6.768;2023-08-08T00:20:31;5.70;;;2.63;;
81648;SDS011;71057;51.436;6.768;2023-08-08T00:22:57;3.83;;;2.67;;
81648;SDS011;71057;51.436;6.768;2023-08-08T00:25:22;3.97;;;2.25;;
81648;SDS011;71057;51.436;6.768;2023-08-08T00:27:48;3.27;;;2.10;;
81648;SDS011;71057;51.436;6.768;2023-08-08T00:30:14;3.45;;;2.30;;
81648;SDS011;71057;51.436;6.768;2023-08-08T00:32:39;3.40;;;1.90;;
81648;SDS011;71057;51.436;6.768;2023-08-08T00:35:05;5.00;;;2.13;;
81648;SDS011;71057;51.436;6.768;2023-08-08T00:37:30;3.50;;;2.33;;
81648;SDS011;71057;51.436;6.768;2023-08-08T00:39:55;4.83;;;2.33;;
81648;SDS011;71057;51.436;6.768;2023-08-08T00:42:20;3.40;;;2.40;;
81648;SDS011;71057;51.436;6.768;2023-08-08T00:44:45;3.63;;;2.40;;
81648;SDS011;71057;51.436;6.768;2023-08-08T00:47:11;4.77;;;2.50;;
81648;SDS011;71057;51.436;6.768;2023-08-08T00:49:36;3.37;;;2.37;;
81648;SDS011;71057;51.436;6.768;2023-08-08T00:52:01;4.28;;;2.13;;
81648;SDS011;71057;51.436;6.768;2023-08-08T00:54:27;4.22;;;1.98;;
81648;SDS011;71057;51.436;6.768;2023-08-08T00:56:52;3.10;;;1.87;;
81648;SDS011;71057;51.436;6.768;2023-08-08T00:59:18;4.13;;;2.10;;
81648;SDS011;71057;51.436;6.768;2023-08-08T01:01:43;3.45;;;2.55;;
81648;SDS011;71057;51.436;6.768;2023-08-08T01:04:09;3.33;;;2.33;;
81648;SDS011;71057;51.436;6.768;2023-08-08T01:09:21;2.65;;;2.10;;
81648;SDS011;71057;51.436;6.768;2023-08-08T01:11:46;5.50;;;2.50;;
81648;SDS011;71057;51.436;6.768;2023-08-08T01:14:13;3.53;;;2.70;;
81648;SDS011;71057;51.436;6.768;2023-08-08T01:16:40;5.13;;;2.80;;
81648;SDS011;71057;51.436;6.768;2023-08-08T01:19:05;4.40;;;2.60;;
81648;SDS011;71057;51.436;6.768;2023-08-08T01:21:31;4.80;;;2.70;;
81648;SDS011;71057;51.436;6.768;2023-08-08T01:26:32;4.32;;;2.58;;
81648;SDS011;71057;51.436;6.768;2023-08-08T01:28:57;3.80;;;2.47;;
81648;SDS011;71057;51.436;6.768;2023-08-08T01:31:23;4.77;;;3.03;;
81648;SDS011;71057;51.436;6.768;2023-08-08T01:33:48;4.87;;;2.80;;
81648;SDS011;71057;51.436;6.768;2023-08-08T01:36:15;3.30;;;2.40;;
81648;SDS011;71057;51.436;6.768;2023-08-08T01:38:44;2.95;;;2.17;;
81648;SDS011;71057;51.436;6.768;2023-08-08T01:41:11;4.90;;;2.47;;
81648;SDS011;71057;51.436;6.768;2023-08-08T01:43:37;4.38;;;2.60;;
81648;SDS011;71057;51.436;6.768;2023-08-08T01:46:03;3.83;;;2.90;;
81648;SDS011;71057;51.436;6.768;2023-08-08T01:48:29;3.38;;;2.55;;
81648;SDS011;71057;51.436;6.768;2023-08-08T01:50:54;4.70;;;2.75;;
81648;SDS011;71057;51.436;6.768;2023-08-08T01:53:19;4.07;;;2.47;;
81648;SDS011;71057;51.436;6.768;2023-08-08T01:55:44;3.63;;;2.57;;
81648;SDS011;71057;51.436;6.768;2023-08-08T01:58:10;5.00;;;2.50;;
81648;SDS011;71057;51.436;6.768;2023-08-08T02:00:35;3.63;;;2.67;;
81648;SDS011;71057;51.436;6.768;2023-08-08T02:03:01;4.82;;;3.03;;
81648;SDS011;71057;51.436;6.768;2023-08-08T02:05:27;3.72;;;2.90;;
81648;SDS011;71057;51.436;6.768;2023-08-08T02:07:52;4.13;;;2.97;;
81648;SDS011;71057;51.436;6.768;2023-08-08T02:10:17;4.97;;;2.30;;
81648;SDS011;71057;51.436;6.768;2023-08-08T02:12:42;4.83;;;2.10;;
81648;SDS011;71057;51.436;6.768;2023-08-08T02:15:08;4.60;;;2.47;;
81648;SDS011;71057;51.436;6.768;2023-08-08T02:17:33;5.22;;;2.28;;
81648;SDS011;71057;51.436;6.768;2023-08-08T02:19:58;5.00;;;2.40;;
81648;SDS011;71057;51.436;6.768;2023-08-08T02:22:23;5.27;;;2.73;;
81648;SDS011;71057;51.436;6.768;2023-08-08T02:24:49;5.83;;;2.50;;
81648;SDS011;71057;51.436;6.768;2023-08-08T02:27:14;4.03;;;2.63;;
81648;SDS011;71057;51.436;6.768;2023-08-08T02:29:39;5.77;;;3.17;;
81648;SDS011;71057;51.436;6.768;2023-08-08T02:32:04;4.80;;;2.42;;
81648;SDS011;71057;51.436;6.768;2023-08-08T02:34:30;3.88;;;2.42;;
81648;SDS011;71057;51.436;6.768;2023-08-08T02:36:55;2.83;;;2.10;;
81648;SDS011;71057;51.436;6.768;2023-08-08T02:39:20;4.37;;;2.77;;
81648;SDS011;71057;51.436;6.768;2023-08-08T02:41:45;4.57;;;2.50;;
81648;SDS011;71057;51.436;6.768;2023-08-08T02:44:10;4.13;;;2.40;;
81648;SDS011;71057;51.436;6.768;2023-08-08T02:46:35;5.87;;;2.57;;
81648;SDS011;71057;51.436;6.768;2023-08-08T02:49:02;6.30;;;3.03;;
81648;SDS011;71057;51.436;6.768;2023-08-08T02:51:27;4.27;;;3.00;;
81648;SDS011;71057;51.436;6.768;2023-08-08T02:53:52;4.27;;;3.20;;
81648;SDS011;71057;51.436;6.768;2023-08-08T02:56:18;6.80;;;2.93;;
81648;SDS011;71057;51.436;6.768;2023-08-08T02:58:43;6.67;;;2.70;;
81648;SDS011;71057;51.436;6.768;2023-08-08T03:01:08;3.50;;;2.60;;
81648;SDS011;71057;51.436;6.768;2023-08-08T03:03:33;4.70;;;3.00;;
81648;SDS011;71057;51.436;6.768;2023-08-08T03:06:00;4.83;;;3.10;;
81648;SDS011;71057;51.436;6.768;2023-08-08T03:08:25;6.07;;;3.05;;
81648;SDS011;71057;51.436;6.768;2023-08-08T03:10:52;4.65;;;2.50;;
81648;SDS011;71057;51.436;6.768;2023-08-08T03:13:17;4.13;;;2.73;;
81648;SDS011;71057;51.436;6.768;2023-08-08T03:15:44;5.20;;;2.70;;
81648;SDS011;71057;51.436;6.768;2023-08-08T03:18:10;6.03;;;2.97;;
81648;SDS011;71057;51.436;6.768;2023-08-08T03:20:35;5.57;;;3.40;;
81648;SDS011;71057;51.436;6.768;2023-08-08T03:23:00;4.60;;;3.00;;
81648;SDS011;71057;51.436;6.768;2023-08-08T03:25:25;8.10;;;3.70;;
81648;SDS011;71057;51.436;6.768;2023-08-08T03:27:50;6.83;;;3.23;;
81648;SDS011;71057;51.436;6.768;2023-08-08T03:30:16;5.27;;;3.57;;
81648;SDS011;71057;51.436;6.768;2023-08-08T03:32:41;7.97;;;3.80;;
81648;SDS011;71057;51.436;6.768;2023-08-08T03:35:06;7.13;;;3.97;;
81648;SDS011;71057;51.436;6.768;2023-08-08T03:37:31;6.55;;;3.60;;
81648;SDS011;71057;51.436;6.768;2023-08-08T03:39:57;6.03;;;3.60;;
81648;SDS011;71057;51.436;6.768;2023-08-08T03:42:22;6.43;;;3.80;;
81648;SDS011;71057;51.436;6.768;2023-08-08T03:44:47;5.27;;;3.20;;
81648;SDS011;71057;51.436;6.768;2023-08-08T03:47:12;5.97;;;3.90;;
81648;SDS011;71057;51.436;6.768;2023-08-08T03:49:37;5.90;;;4.30;;
81648;SDS011;71057;51.436;6.768;2023-08-08T03:52:03;8.47;;;4.57;;
81648;SDS011;71057;51.436;6.768;2023-08-08T03:54:28;5.72;;;3.60;;
81648;SDS011;71057;51.436;6.768;2023-08-08T03:56:54;6.95;;;4.28;;
81648;SDS011;71057;51.436;6.768;2023-08-08T03:59:19;6.23;;;4.37;;
81648;SDS011;71057;51.436;6.768;2023-08-08T04:01:44;5.47;;;3.70;;
81648;SDS011;71057;51.436;6.768;2023-08-08T04:04:09;7.38;;;3.72;;
81648;SDS011;71057;51.436;6.768;2023-08-08T04:06:35;5.63;;;4.40;;
81648;SDS011;71057;51.436;6.768;2023-08-08T04:09:00;7.10;;;3.77;;
81648;SDS011;71057;51.436;6.768;2023-08-08T04:11:26;7.13;;;4.05;;
81648;SDS011;71057;51.436;6.768;2023-08-08T04:13:51;5.90;;;3.63;;
81648;SDS011;71057;51.436;6.768;2023-08-08T04:16:16;8.60;;;4.20;;
81648;SDS011;71057;51.436;6.768;2023-08-08T04:18:41;6.27;;;3.67;;
81648;SDS011;71057;51.436;6.768;2023-08-08T04:21:07;7.40;;;4.07;;
81648;SDS011;71057;51.436;6.768;2023-08-08T04:23:32;6.23;;;3.80;;
81648;SDS011;71057;51.436;6.768;2023-08-08T04:25:57;7.90;;;3.90;;
81648;SDS011;71057;51.436;6.768;2023-08-08T04:28:22;8.13;;;3.30;;
81648;SDS011;71057;51.436;6.768;2023-08-08T04:30:47;11.10;;;4.27;;
81648;SDS011;71057;51.436;6.768;2023-08-08T04:33:13;9.73;;;4.30;;
81648;SDS011;71057;51.436;6.768;2023-08-08T04:35:38;6.93;;;3.77;;
81648;SDS011;71057;51.436;6.768;2023-08-08T04:38:03;8.03;;;4.17;;
81648;SDS011;71057;51.436;6.768;2023-08-08T04:40:28;8.63;;;4.07;;
81648;SDS011;71057;51.436;6.768;2023-08-08T04:42:53;9.70;;;4.10;;
81648;SDS011;71057;51.436;6.768;2023-08-08T04:45:19;9.60;;;4.30;;
81648;SDS011;71057;51.436;6.768;2023-08-08T04:47:45;8.00;;;5.20;;
81648;SDS011;71057;51.436;6.768;2023-08-08T04:50:11;8.17;;;4.40;;
81648;SDS011;71057;51.436;6.768;2023-08-08T04:52:36;7.37;;;4.67;;
81648;SDS011;71057;51.436;6.768;2023-08-08T04:55:01;11.70;;;5.07;;
81648;SDS011;71057;51.436;6.768;2023-08-08T04:57:26;7.72;;;4.80;;
81648;SDS011;71057;51.436;6.768;2023-08-08T04:59:52;8.93;;;4.83;;
81648;SDS011;71057;51.436;6.768;2023-08-08T05:02:17;9.00;;;5.15;;
81648;SDS011;71057;51.436;6.768;2023-08-08T05:04:42;8.03;;;5.10;;
81648;SDS011;71057;51.436;6.768;2023-08-08T05:07:07;8.13;;;5.13;;
81648;SDS011;71057;51.436;6.768;2023-08-08T05:09:33;9.63;;;4.47;;
81648;SDS011;71057;51.436;6.768;2023-08-08T05:11:58;9.47;;;5.17;;
81648;SDS011;71057;51.436;6.768;2023-08-08T05:14:23;9.37;;;5.37;;
81648;SDS011;71057;51.436;6.768;2023-08-08T05:16:48;12.80;;;5.50;;
81648;SDS011;71057;51.436;6.768;2023-08-08T05:19:13;10.77;;;5.10;;
81648;SDS011;71057;51.436;6.768;2023-08-08T05:21:39;9.47;;;5.07;;
81648;SDS011;71057;51.436;6.768;2023-08-08T05:24:04;10.57;;;5.73;;
81648;SDS011;71057;51.436;6.768;2023-08-08T05:26:29;11.33;;;5.63;;
81648;SDS011;71057;51.436;6.768;2023-08-08T05:28:54;8.47;;;6.37;;
81648;SDS011;71057;51.436;6.768;2023-08-08T05:31:19;8.27;;;5.73;;
81648;SDS011;71057;51.436;6.768;2023-08-08T05:33:45;12.20;;;6.50;;
81648;SDS011;71057;51.436;6.768;2023-08-08T05:36:10;10.70;;;6.07;;
81648;SDS011;71057;51.436;6.768;2023-08-08T05:38:35;12.40;;;6.33;;
81648;SDS011;71057;51.436;6.768;2023-08-08T05:41:01;9.25;;;5.15;;
81648;SDS011;71057;51.436;6.768;2023-08-08T05:43:27;11.33;;;5.30;;
81648;SDS011;71057;51.436;6.768;2023-08-08T05:45:52;13.25;;;6.35;;
81648;SDS011;71057;51.436;6.768;2023-08-08T05:48:18;9.52;;;6.05;;
81648;SDS011;71057;51.436;6.768;2023-08-08T05:50:43;10.60;;;7.07;;
81648;SDS011;71057;51.436;6.768;2023-08-08T05:53:08;17.00;;;6.73;;
81648;SDS011;71057;51.436;6.768;2023-08-08T05:55:33;12.27;;;6.97;;
81648;SDS011;71057;51.436;6.768;2023-08-08T05:57:58;14.77;;;7.47;;
81648;SDS011;71057;51.436;6.768;2023-08-08T06:00:24;12.23;;;6.57;;
81648;SDS011;71057;51.436;6.768;2023-08-08T06:02:49;9.97;;;7.13;;
81648;SDS011;71057;51.436;6.768;2023-08-08T06:05:16;11.48;;;7.50;;
81648;SDS011;71057;51.436;6.768;2023-08-08T06:07:41;12.88;;;6.90;;
81648;SDS011;71057;51.436;6.768;2023-08-08T06:10:06;10.53;;;7.50;;
81648;SDS011;71057;51.436;6.768;2023-08-08T06:12:33;11.75;;;7.35;;
81648;SDS011;71057;51.436;6.768;2023-08-08T06:14:58;12.17;;;6.87;;
81648;SDS011;71057;51.436;6.768;2023-08-08T06:17:23;17.33;;;8.33;;
81648;SDS011;71057;51.436;6.768;2023-08-08T06:19:49;16.73;;;8.00;;
81648;SDS011;71057;51.436;6.768;2023-08-08T06:22:15;12.63;;;7.82;;
81648;SDS011;71057;51.436;6.768;2023-08-08T06:24:40;12.63;;;7.23;;
81648;SDS011;71057;51.436;6.768;2023-08-08T06:27:05;15.07;;;8.27;;
81648;SDS011;71057;51.436;6.768;2023-08-08T06:29:30;12.13;;;7.63;;
81648;SDS011;71057;51.436;6.768;2023-08-08T06:31:56;14.02;;;7.50;;
81648;SDS011;71057;51.436;6.768;2023-08-08T06:34:21;14.67;;;8.13;;
81648;SDS011;71057;51.436;6.768;2023-08-08T06:36:46;11.90;;;8.52;;
81648;SDS011;71057;51.436;6.768;2023-08-08T06:39:12;14.40;;;7.50;;
81648;SDS011;71057;51.436;6.768;2023-08-08T06:41:37;14.50;;;8.90;;
81648;SDS011;71057;51.436;6.768;2023-08-08T06:44:03;13.73;;;7.90;;
81648;SDS011;71057;51.436;6.768;2023-08-08T06:46:28;17.65;;;8.48;;
81648;SDS011;71057;51.436;6.768;2023-08-08T06:48:55;13.73;;;9.17;;
81648;SDS011;71057;51.436;6.768;2023-08-08T06:51:24;14.55;;;7.95;;
81648;SDS011;71057;51.436;6.768;2023-08-08T06:56:17;14.35;;;9.00;;
81648;SDS011;71057;51.436;6.768;2023-08-08T06:58:42;10.98;;;8.85;;
81648;SDS011;71057;51.436;6.768;2023-08-08T07:01:08;11.98;;;8.48;;
81648;SDS011;71057;51.436;6.768;2023-08-08T07:03:33;13.68;;;9.10;;
81648;SDS011;71057;51.436;6.768;2023-08-08T07:05:58;13.17;;;8.20;;
81648;SDS011;71057;51.436;6.768;2023-08-08T07:08:25;13.48;;;8.13;;
81648;SDS011;71057;51.436;6.768;2023-08-08T07:10:50;12.83;;;7.67;;
81648;SDS011;71057;51.436;6.768;2023-08-08T07:13:15;12.60;;;7.63;;
81648;SDS011;71057;51.436;6.768;2023-08-08T07:15:41;11.85;;;7.22;;
81648;SDS011;71057;51.436;6.768;2023-08-08T07:18:06;15.13;;;7.43;;
81648;SDS011;71057;51.436;6.768;2023-08-08T07:20:31;10.93;;;7.07;;
81648;SDS011;71057;51.436;6.768;2023-08-08T07:22:57;11.90;;;6.90;;
81648;SDS011;71057;51.436;6.768;2023-08-08T07:25:22;13.93;;;6.70;;
81648;SDS011;71057;51.436;6.768;2023-08-08T07:27:47;10.73;;;6.80;;
81648;SDS011;71057;51.436;6.768;2023-08-08T07:30:12;8.20;;;4.87;;
81648;SDS011;71057;51.436;6.768;2023-08-08T07:32:38;11.65;;;5.72;;
81648;SDS011;71057;51.436;6.768;2023-08-08T07:35:03;8.67;;;4.70;;
81648;SDS011;71057;51.436;6.768;2023-08-08T07:37:30;7.93;;;5.43;;
81648;SDS011;71057;51.436;6.768;2023-08-08T07:39:56;8.03;;;5.20;;
81648;SDS011;71057;51.436;6.768;2023-08-08T07:42:21;12.10;;;5.53;;
81648;SDS011;71057;51.436;6.768;2023-08-08T07:44:46;12.50;;;7.10;;
81648;SDS011;71057;51.436;6.768;2023-08-08T07:47:11;13.50;;;5.43;;
81648;SDS011;71057;51.436;6.768;2023-08-08T07:49:36;6.47;;;4.77;;
81648;SDS011;71057;51.436;6.768;2023-08-08T07:52:02;8.37;;;4.47;;
81648;SDS011;71057;51.436;6.768;2023-08-08T07:54:27;8.15;;;4.30;;
81648;SDS011;71057;51.436;6.768;2023-08-08T07:56:52;8.63;;;4.53;;
81648;SDS011;71057;51.436;6.768;2023-08-08T07:59:17;9.27;;;4.60;;
81648;SDS011;71057;51.436;6.768;2023-08-08T08:01:43;9.00;;;4.53;;
81648;SDS011;71057;51.436;6.768;2023-08-08T08:04:08;8.98;;;4.57;;
81648;SDS011;71057;51.436;6.768;2023-08-08T08:06:33;7.17;;;4.10;;
81648;SDS011;71057;51.436;6.768;2023-08-08T08:08:59;7.37;;;3.80;;
81648;SDS011;71057;51.436;6.768;2023-08-08T08:11:24;7.17;;;3.60;;
81648;SDS011;71057;51.436;6.768;2023-08-08T08:13:49;7.80;;;3.77;;
81648;SDS011;71057;51.436;6.768;2023-08-08T08:16:14;6.23;;;3.10;;
81648;SDS011;71057;51.436;6.768;2023-08-08T08:18:39;8.37;;;3.80;;
81648;SDS011;71057;51.436;6.768;2023-08-08T08:21:05;8.13;;;3.30;;
81648;SDS011;71057;51.436;6.768;2023-08-08T08:23:30;6.33;;;3.53;;
81648;SDS011;71057;51.436;6.768;2023-08-08T08:25:57;7.20;;;3.70;;
81648;SDS011;71057;51.436;6.768;2023-08-08T08:28:22;7.40;;;2.93;;
81648;SDS011;71057;51.436;6.768;2023-08-08T08:30:47;8.43;;;3.13;;
81648;SDS011;71057;51.436;6.768;2023-08-08T08:33:12;11.07;;;3.80;;
81648;SDS011;71057;51.436;6.768;2023-08-08T08:35:38;7.43;;;3.10;;
81648;SDS011;71057;51.436;6.768;2023-08-08T08:38:03;6.00;;;3.37;;
81648;SDS011;71057;51.436;6.768;2023-08-08T08:40:28;8.63;;;3.87;;
81648;SDS011;71057;51.436;6.768;2023-08-08T08:42:54;5.40;;;3.00;;
81648;SDS011;71057;51.436;6.768;2023-08-08T08:45:20;6.30;;;3.13;;
81648;SDS011;71057;51.436;6.768;2023-08-08T08:47:47;5.90;;;3.25;;
81648;SDS011;71057;51.436;6.768;2023-08-08T08:50:13;4.75;;;2.75;;
81648;SDS011;71057;51.436;6.768;2023-08-08T08:52:40;8.18;;;3.13;;
81648;SDS011;71057;51.436;6.768;2023-08-08T08:55:05;5.43;;;2.80;;
81648;SDS011;71057;51.436;6.768;2023-08-08T08:57:31;7.43;;;3.13;;
81648;SDS011;71057;51.436;6.768;2023-08-08T08:59:58;9.07;;;3.20;;
81648;SDS011;71057;51.436;6.768;2023-08-08T09:02:23;5.90;;;3.10;;
81648;SDS011;71057;51.436;6.768;2023-08-08T09:04:48;5.43;;;3.10;;
81648;SDS011;71057;51.436;6.768;2023-08-08T09:07:14;3.20;;;2.30;;
81648;SDS011;71057;51.436;6.768;2023-08-08T09:09:44;4.63;;;2.88;;
81648;SDS011;71057;51.436;6.768;2023-08-08T09:12:09;8.07;;;3.33;;
81648;SDS011;71057;51.436;6.768;2023-08-08T09:14:38;6.57;;;3.55;;
81648;SDS011;71057;51.436;6.768;2023-08-08T09:17:04;5.40;;;3.15;;
81648;SDS011;71057;51.436;6.768;2023-08-08T09:19:34;6.18;;;3.42;;
81648;SDS011;71057;51.436;6.768;2023-08-08T09:22:00;4.15;;;2.50;;
81648;SDS011;71057;51.436;6.768;2023-08-08T09:24:26;4.93;;;2.97;;
81648;SDS011;71057;51.436;6.768;2023-08-08T09:26:51;9.13;;;3.20;;
81648;SDS011;71057;51.436;6.768;2023-08-08T09:29:16;5.50;;;3.27;;
81648;SDS011;71057;51.436;6.768;2023-08-08T09:31:41;6.60;;;3.30;;
81648;SDS011;71057;51.436;6.768;2023-08-08T09:34:07;7.47;;;3.30;;
81648;SDS011;71057;51.436;6.768;2023-08-08T09:36:32;7.50;;;3.17;;
81648;SDS011;71057;51.436;6.768;2023-08-08T09:38:58;6.85;;;3.50;;
81648;SDS011;71057;51.436;6.768;2023-08-08T09:41:23;8.27;;;3.50;;
81648;SDS011;71057;51.436;6.768;2023-08-08T09:43:49;6.35;;;4.03;;
81648;SDS011;71057;51.436;6.768;2023-08-08T09:46:15;7.93;;;3.30;;
81648;SDS011;71057;51.436;6.768;2023-08-08T09:48:43;7.00;;;3.72;;
81648;SDS011;71057;51.436;6.768;2023-08-08T09:51:08;8.18;;;3.05;;
81648;SDS011;71057;51.436;6.768;2023-08-08T09:53:34;5.30;;;3.07;;
81648;SDS011;71057;51.436;6.768;2023-08-08T09:56:00;7.93;;;3.35;;
81648;SDS011;71057;51.436;6.768;2023-08-08T09:58:26;7.70;;;3.70;;
81648;SDS011;71057;51.436;6.768;2023-08-08T10:00:51;6.07;;;3.37;;
81648;SDS011;71057;51.436;6.768;2023-08-08T10:03:17;8.03;;;3.00;;
81648;SDS011;71057;51.436;6.768;2023-08-08T10:05:42;7.82;;;3.22;;
81648;SDS011;71057;51.436;6.768;2023-08-08T10:08:08;6.57;;;3.53;;
81648;SDS011;71057;51.436;6.768;2023-08-08T10:10:33;6.93;;;3.07;;
81648;SDS011;71057;51.436;6.768;2023-08-08T10:12:59;6.00;;;3.45;;
81648;SDS011;71057;51.436;6.768;2023-08-08T10:15:27;6.32;;;3.33;;
81648;SDS011;71057;51.436;6.768;2023-08-08T10:17:53;6.65;;;2.90;;
81648;SDS011;71057;51.436;6.768;2023-08-08T10:20:18;7.70;;;3.10;;
81648;SDS011;71057;51.436;6.768;2023-08-08T10:22:44;5.57;;;2.80;;
81648;SDS011;71057;51.436;6.768;2023-08-08T10:25:20;8.80;;;2.92;;
81648;SDS011;71057;51.436;6.768;2023-08-08T10:27:48;5.70;;;3.17;;
81648;SDS011;71057;51.436;6.768;2023-08-08T10:30:13;7.53;;;2.93;;
81648;SDS011;71057;51.436;6.768;2023-08-08T10:32:42;4.32;;;2.97;;
81648;SDS011;71057;51.436;6.768;2023-08-08T10:35:09;5.22;;;3.05;;
81648;SDS011;71057;51.436;6.768;2023-08-08T10:37:34;7.82;;;3.15;;
81648;SDS011;71057;51.436;6.768;2023-08-08T10:40:00;5.57;;;2.45;;
81648;SDS011;71057;51.436;6.768;2023-08-08T10:42:26;4.03;;;2.08;;
81648;SDS011;71057;51.436;6.768;2023-08-08T10:44:52;5.80;;;3.00;;
81648;SDS011;71057;51.436;6.768;2023-08-08T10:47:51;5.18;;;2.75;;
81648;SDS011;71057;51.436;6.768;2023-08-08T10:50:14;6.13;;;2.75;;
81648;SDS011;71057;51.436;6.768;2023-08-08T10:55:20;7.60;;;2.45;;
81648;SDS011;71057;51.436;6.768;2023-08-08T10:57:56;5.47;;;2.33;;
81648;SDS011;71057;51.436;6.768;2023-08-08T11:00:26;6.43;;;2.50;;
81648;SDS011;71057;51.436;6.768;2023-08-08T11:02:53;5.30;;;2.97;;
81648;SDS011;71057;51.436;6.768;2023-08-08T11:05:19;6.20;;;3.00;;
81648;SDS011;71057;51.436;6.768;2023-08-08T11:07:44;6.90;;;3.10;;
81648;SDS011;71057;51.436;6.768;2023-08-08T11:10:10;4.95;;;3.40;;
81648;SDS011;71057;51.436;6.768;2023-08-08T11:12:35;4.77;;;2.67;;
81648;SDS011;71057;51.436;6.768;2023-08-08T11:15:00;5.13;;;2.57;;
81648;SDS011;71057;51.436;6.768;2023-08-08T11:17:25;4.97;;;2.30;;
81648;SDS011;71057;51.436;6.768;2023-08-08T11:19:51;4.73;;;2.80;;
81648;SDS011;71057;51.436;6.768;2023-08-08T11:22:16;4.27;;;2.30;;
81648;SDS011;71057;51.436;6.768;2023-08-08T11:24:41;3.88;;;2.83;;
81648;SDS011;71057;51.436;6.768;2023-08-08T11:27:06;5.10;;;2.60;;
81648;SDS011;71057;51.436;6.768;2023-08-08T11:29:31;6.07;;;2.60;;
81648;SDS011;71057;51.436;6.768;2023-08-08T11:31:59;6.15;;;3.10;;
81648;SDS011;71057;51.436;6.768;2023-08-08T11:34:24;6.63;;;2.65;;
81648;SDS011;71057;51.436;6.768;2023-08-08T11:36:49;6.27;;;2.57;;
81648;SDS011;71057;51.436;6.768;2023-08-08T11:39:15;5.47;;;2.53;;
81648;SDS011;71057;51.436;6.768;2023-08-08T11:41:41;4.40;;;2.58;;
81648;SDS011;71057;51.436;6.768;2023-08-08T11:44:06;5.00;;;3.08;;
81648;SDS011;71057;51.436;6.768;2023-08-08T11:46:33;6.88;;;2.97;;
81648;SDS011;71057;51.436;6.768;2023-08-08T11:49:04;5.37;;;3.10;;
81648;SDS011;71057;51.436;6.768;2023-08-08T11:51:31;12.05;;;3.55;;
81648;SDS011;71057;51.436;6.768;2023-08-08T11:53:57;6.53;;;3.40;;
81648;SDS011;71057;51.436;6.768;2023-08-08T11:56:24;4.70;;;3.20;;
81648;SDS011;71057;51.436;6.768;2023-08-08T11:58:49;6.80;;;3.20;;
81648;SDS011;71057;51.436;6.768;2023-08-08T12:01:15;4.70;;;3.60;;
81648;SDS011;71057;51.436;6.768;2023-08-08T12:03:40;4.55;;;3.20;;
81648;SDS011;71057;51.436;6.768;2023-08-08T12:06:12;3.95;;;2.97;;
81648;SDS011;71057;51.436;6.768;2023-08-08T12:08:38;4.78;;;2.90;;
81648;SDS011;71057;51.436;6.768;2023-08-08T12:11:03;6.03;;;3.30;;
81648;SDS011;71057;51.436;6.768;2023-08-08T12:13:29;5.30;;;3.28;;
81648;SDS011;71057;51.436;6.768;2023-08-08T12:15:55;6.45;;;3.17;;
81648;SDS011;71057;51.436;6.768;2023-08-08T12:18:22;5.82;;;2.90;;
81648;SDS011;71057;51.436;6.768;2023-08-08T12:20:48;6.60;;;3.03;;
81648;SDS011;71057;51.436;6.768;2023-08-08T12:23:13;4.60;;;3.33;;
81648;SDS011;71057;51.436;6.768;2023-08-08T12:25:39;6.22;;;3.40;;
81648;SDS011;71057;51.436;6.768;2023-08-08T12:28:04;4.43;;;2.97;;
81648;SDS011;71057;51.436;6.768;2023-08-08T12:30:29;5.05;;;3.05;;
81648;SDS011;71057;51.436;6.768;2023-08-08T12:32:55;4.37;;;2.70;;
81648;SDS011;71057;51.436;6.768;2023-08-08T12:35:20;5.43;;;3.20;;
81648;SDS011;71057;51.436;6.768;2023-08-08T12:37:45;5.18;;;2.65;;
81648;SDS011;71057;51.436;6.768;2023-08-08T12:40:11;5.53;;;2.75;;
81648;SDS011;71057;51.436;6.768;2023-08-08T12:42:36;6.78;;;3.25;;
81648;SDS011;71057;51.436;6.768;2023-08-08T12:45:01;5.60;;;2.97;;
81648;SDS011;71057;51.436;6.768;2023-08-08T12:47:26;4.47;;;2.47;;
81648;SDS011;71057;51.436;6.768;2023-08-08T12:49:51;5.90;;;2.83;;
81648;SDS011;71057;51.436;6.768;2023-08-08T12:52:17;5.33;;;2.83;;
81648;SDS011;71057;51.436;6.768;2023-08-08T12:54:42;5.90;;;2.90;;
81648;SDS011;71057;51.436;6.768;2023-08-08T12:57:07;7.10;;;2.95;;
81648;SDS011;71057;51.436;6.768;2023-08-08T12:59:33;5.55;;;2.42;;
81648;SDS011;71057;51.436;6.768;2023-08-08T13:01:59;3.67;;;2.17;;
81648;SDS011;71057;51.436;6.768;2023-08-08T13:04:24;4.07;;;2.17;;
81648;SDS011;71057;51.436;6.768;2023-08-08T13:06:50;4.50;;;2.08;;
81648;SDS011;71057;51.436;6.768;2023-08-08T13:09:15;7.03;;;2.57;;
81648;SDS011;71057;51.436;6.768;2023-08-08T13:11:41;5.63;;;2.53;;
81648;SDS011;71057;51.436;6.768;2023-08-08T13:14:06;3.03;;;1.73;;
81648;SDS011;71057;51.436;6.768;2023-08-08T13:16:31;5.85;;;2.03;;
81648;SDS011;71057;51.436;6.768;2023-08-08T13:18:56;6.87;;;2.33;;
81648;SDS011;71057;51.436;6.768;2023-08-08T13:21:21;5.07;;;2.40;;
81648;SDS011;71057;51.436;6.768;2023-08-08T13:23:47;4.43;;;2.10;;
81648;SDS011;71057;51.436;6.768;2023-08-08T13:26:12;3.20;;;1.70;;
81648;SDS011;71057;51.436;6.768;2023-08-08T13:28:37;2.97;;;1.70;;
81648;SDS011;71057;51.436;6.768;2023-08-08T13:31:03;3.05;;;1.88;;
81648;SDS011;71057;51.436;6.768;2023-08-08T13:33:29;4.27;;;1.70;;
81648;SDS011;71057;51.436;6.768;2023-08-08T13:35:54;3.17;;;1.40;;
81648;SDS011;71057;51.436;6.768;2023-08-08T13:38:19;4.03;;;1.67;;
81648;SDS011;71057;51.436;6.768;2023-08-08T13:40:44;7.13;;;2.00;;
81648;SDS011;71057;51.436;6.768;2023-08-08T13:43:10;3.65;;;1.70;;
81648;SDS011;71057;51.436;6.768;2023-08-08T13:45:35;5.30;;;1.90;;
81648;SDS011;71057;51.436;6.768;2023-08-08T13:48:01;4.03;;;1.90;;
81648;SDS011;71057;51.436;6.768;2023-08-08T13:50:26;2.80;;;1.67;;
81648;SDS011;71057;51.436;6.768;2023-08-08T13:52:51;3.37;;;2.07;;
81648;SDS011;71057;51.436;6.768;2023-08-08T13:55:18;4.55;;;1.77;;
81648;SDS011;71057;51.436;6.768;2023-08-08T13:57:43;3.03;;;1.70;;
81648;SDS011;71057;51.436;6.768;2023-08-08T14:00:09;3.67;;;1.98;;
81648;SDS011;71057;51.436;6.768;2023-08-08T14:02:37;2.92;;;1.60;;
81648;SDS011;71057;51.436;6.768;2023-08-08T14:05:02;4.57;;;1.97;;
81648;SDS011;71057;51.436;6.768;2023-08-08T14:07:27;5.25;;;2.10;;
81648;SDS011;71057;51.436;6.768;2023-08-08T14:09:53;3.08;;;1.83;;
81648;SDS011;71057;51.436;6.768;2023-08-08T14:12:18;2.73;;;1.83;;
81648;SDS011;71057;51.436;6.768;2023-08-08T14:14:43;3.30;;;1.70;;
81648;SDS011;71057;51.436;6.768;2023-08-08T14:17:08;3.83;;;1.93;;
81648;SDS011;71057;51.436;6.768;2023-08-08T14:19:33;4.53;;;1.93;;
81648;SDS011;71057;51.436;6.768;2023-08-08T14:21:59;3.23;;;1.90;;
81648;SDS011;71057;51.436;6.768;2023-08-08T14:24:24;4.43;;;2.10;;
81648;SDS011;71057;51.436;6.768;2023-08-08T14:26:49;3.25;;;1.83;;
81648;SDS011;71057;51.436;6.768;2023-08-08T14:29:15;4.60;;;1.53;;
81648;SDS011;71057;51.436;6.768;2023-08-08T14:31:40;3.63;;;1.70;;
81648;SDS011;71057;51.436;6.768;2023-08-08T14:34:05;4.07;;;1.67;;
81648;SDS011;71057;51.436;6.768;2023-08-08T14:36:30;3.07;;;1.60;;
81648;SDS011;71057;51.436;6.768;2023-08-08T14:38:55;2.77;;;1.33;;
81648;SDS011;71057;51.436;6.768;2023-08-08T14:41:21;3.93;;;1.43;;
81648;SDS011;71057;51.436;6.768;2023-08-08T14:43:46;1.97;;;1.30;;
81648;SDS011;71057;51.436;6.768;2023-08-08T14:46:11;2.33;;;1.40;;